sensor_id;sensor_type;location;lat;lon;timestamp;temperature;humidity
21193;DHT22;10754;51.106;7.164;2022-08-27T00:01:33;24.30;99.90
21193;DHT22;10754;51.106;7.164;2022-08-27T00:03:59;24.30;99.90
21193;DHT22;10754;51.106;7.164;2022-08-27T00:06:25;24.20;99.90
21193;DHT22;10754;51.106;7.164;2022-08-27T00:08:52;24.10;99.90
21193;DHT22;10754;51.106;7.164;2022-08-27T00:11:20;24.20;99.90
21193;DHT22;10754;51.106;7.164;2022-08-27T00:13:46;24.20;99.90
21193;DHT22;10754;51.106;7.164;2022-08-27T00:16:14;24.20;99.90
21193;DHT22;10754;51.106;7.164;2022-08-27T00:18:41;24.20;99.90
21193;DHT22;10754;51.106;7.164;2022-08-27T00:21:07;24.10;99.90
21193;DHT22;10754;51.106;7.164;2022-08-27T00:23:34;24.20;99.90
21193;DHT22;10754;51.106;7.164;2022-08-27T00:26:01;24.30;99.90
21193;DHT22;10754;51.106;7.164;2022-08-27T00:28:27;24.20;99.90
21193;DHT22;10754;51.106;7.164;2022-08-27T00:30:53;24.10;99.90
21193;DHT22;10754;51.106;7.164;2022-08-27T00:33:21;24.10;99.90
21193;DHT22;10754;51.106;7.164;2022-08-27T00:35:47;24.00;99.90
21193;DHT22;10754;51.106;7.164;2022-08-27T00:38:13;24.00;99.90
21193;DHT22;10754;51.106;7.164;2022-08-27T00:40:39;24.10;99.90
21193;DHT22;10754;51.106;7.164;2022-08-27T00:43:05;24.00;99.90
21193;DHT22;10754;51.106;7.164;2022-08-27T00:45:35;24.00;99.90
21193;DHT22;10754;51.106;7.164;2022-08-27T00:48:02;24.10;99.90
21193;DHT22;10754;51.106;7.164;2022-08-27T00:50:39;24.00;99.90
21193;DHT22;10754;51.106;7.164;2022-08-27T00:53:20;24.00;99.90
21193;DHT22;10754;51.106;7.164;2022-08-27T00:55:55;24.00;99.90
21193;DHT22;10754;51.106;7.164;2022-08-27T00:58:28;24.00;99.90
21193;DHT22;10754;51.106;7.164;2022-08-27T01:00:56;24.00;99.90
21193;DHT22;10754;51.106;7.164;2022-08-27T01:03:22;24.00;99.90
21193;DHT22;10754;51.106;7.164;2022-08-27T01:05:49;23.80;99.90
21193;DHT22;10754;51.106;7.164;2022-08-27T01:08:22;23.90;99.90
21193;DHT22;10754;51.106;7.164;2022-08-27T01:10:48;24.00;99.90
21193;DHT22;10754;51.106;7.164;2022-08-27T01:13:21;23.90;99.90
21193;DHT22;10754;51.106;7.164;2022-08-27T01:15:47;24.00;99.90
21193;DHT22;10754;51.106;7.164;2022-08-27T01:18:14;23.80;99.90
21193;DHT22;10754;51.106;7.164;2022-08-27T01:20:49;23.90;99.90
21193;DHT22;10754;51.106;7.164;2022-08-27T01:23:36;23.90;99.90
21193;DHT22;10754;51.106;7.164;2022-08-27T01:26:06;23.90;99.90
21193;DHT22;10754;51.106;7.164;2022-08-27T01:28:33;23.80;99.90
21193;DHT22;10754;51.106;7.164;2022-08-27T01:31:00;23.80;99.90
21193;DHT22;10754;51.106;7.164;2022-08-27T01:33:26;23.90;99.90
21193;DHT22;10754;51.106;7.164;2022-08-27T01:35:51;23.80;99.90
21193;DHT22;10754;51.106;7.164;2022-08-27T01:38:18;23.80;99.90
21193;DHT22;10754;51.106;7.164;2022-08-27T01:40:45;23.90;99.90
21193;DHT22;10754;51.106;7.164;2022-08-27T01:43:10;23.90;99.90
21193;DHT22;10754;51.106;7.164;2022-08-27T01:45:42;23.90;99.90
21193;DHT22;10754;51.106;7.164;2022-08-27T01:48:09;23.80;99.90
21193;DHT22;10754;51.106;7.164;2022-08-27T01:50:37;23.80;99.90
21193;DHT22;10754;51.106;7.164;2022-08-27T01:53:13;23.80;99.90
21193;DHT22;10754;51.106;7.164;2022-08-27T01:55:40;23.80;99.90
21193;DHT22;10754;51.106;7.164;2022-08-27T01:58:06;23.70;99.90
21193;DHT22;10754;51.106;7.164;2022-08-27T02:00:38;23.70;99.90
21193;DHT22;10754;51.106;7.164;2022-08-27T02:03:06;23.80;99.90
21193;DHT22;10754;51.106;7.164;2022-08-27T02:05:33;23.80;99.90
21193;DHT22;10754;51.106;7.164;2022-08-27T02:07:59;23.70;99.90
21193;DHT22;10754;51.106;7.164;2022-08-27T02:10:31;23.70;99.90
21193;DHT22;10754;51.106;7.164;2022-08-27T02:12:57;23.70;99.90
21193;DHT22;10754;51.106;7.164;2022-08-27T02:15:23;23.60;99.90
21193;DHT22;10754;51.106;7.164;2022-08-27T02:17:49;23.60;99.90
21193;DHT22;10754;51.106;7.164;2022-08-27T02:20:15;23.60;99.90
21193;DHT22;10754;51.106;7.164;2022-08-27T02:22:41;23.60;99.90
21193;DHT22;10754;51.106;7.164;2022-08-27T02:25:09;23.70;99.90
21193;DHT22;10754;51.106;7.164;2022-08-27T02:27:36;23.60;99.90
21193;DHT22;10754;51.106;7.164;2022-08-27T02:30:03;23.50;99.90
21193;DHT22;10754;51.106;7.164;2022-08-27T02:32:29;23.60;99.90
21193;DHT22;10754;51.106;7.164;2022-08-27T02:34:55;23.60;99.90
21193;DHT22;10754;51.106;7.164;2022-08-27T02:37:21;23.60;99.90
21193;DHT22;10754;51.106;7.164;2022-08-27T02:39:46;23.60;99.90
21193;DHT22;10754;51.106;7.164;2022-08-27T02:42:12;23.50;99.90
21193;DHT22;10754;51.106;7.164;2022-08-27T02:44:37;23.50;99.90
21193;DHT22;10754;51.106;7.164;2022-08-27T02:47:04;23.60;99.90
21193;DHT22;10754;51.106;7.164;2022-08-27T02:49:30;23.60;99.90
21193;DHT22;10754;51.106;7.164;2022-08-27T02:51:56;23.60;99.90
21193;DHT22;10754;51.106;7.164;2022-08-27T02:54:23;23.60;99.90
21193;DHT22;10754;51.106;7.164;2022-08-27T02:56:49;23.60;99.90
21193;DHT22;10754;51.106;7.164;2022-08-27T02:59:16;23.60;99.90
21193;DHT22;10754;51.106;7.164;2022-08-27T03:01:41;23.50;99.90
21193;DHT22;10754;51.106;7.164;2022-08-27T03:04:07;23.50;99.90
21193;DHT22;10754;51.106;7.164;2022-08-27T03:06:32;23.60;99.90
21193;DHT22;10754;51.106;7.164;2022-08-27T03:08:58;23.60;99.90
21193;DHT22;10754;51.106;7.164;2022-08-27T03:11:24;23.60;99.90
21193;DHT22;10754;51.106;7.164;2022-08-27T03:13:50;23.50;99.90
21193;DHT22;10754;51.106;7.164;2022-08-27T03:16:16;23.50;99.90
21193;DHT22;10754;51.106;7.164;2022-08-27T03:18:42;23.50;99.90
21193;DHT22;10754;51.106;7.164;2022-08-27T03:21:08;23.40;99.90
21193;DHT22;10754;51.106;7.164;2022-08-27T03:23:34;23.50;99.90
21193;DHT22;10754;51.106;7.164;2022-08-27T03:26:02;23.50;99.90
21193;DHT22;10754;51.106;7.164;2022-08-27T03:28:31;23.50;99.90
21193;DHT22;10754;51.106;7.164;2022-08-27T03:31:00;23.40;99.90
21193;DHT22;10754;51.106;7.164;2022-08-27T03:33:31;23.40;99.90
21193;DHT22;10754;51.106;7.164;2022-08-27T03:35:57;23.40;99.90
21193;DHT22;10754;51.106;7.164;2022-08-27T03:38:23;23.40;99.90
21193;DHT22;10754;51.106;7.164;2022-08-27T03:40:49;23.40;99.90
21193;DHT22;10754;51.106;7.164;2022-08-27T03:43:15;23.40;99.90
21193;DHT22;10754;51.106;7.164;2022-08-27T03:45:42;23.40;99.90
21193;DHT22;10754;51.106;7.164;2022-08-27T03:48:09;23.40;99.90
21193;DHT22;10754;51.106;7.164;2022-08-27T03:50:40;23.50;99.90
21193;DHT22;10754;51.106;7.164;2022-08-27T03:53:05;23.50;99.90
21193;DHT22;10754;51.106;7.164;2022-08-27T03:55:31;23.40;99.90
21193;DHT22;10754;51.106;7.164;2022-08-27T03:57:56;23.40;99.90
21193;DHT22;10754;51.106;7.164;2022-08-27T04:00:22;23.40;99.90
21193;DHT22;10754;51.106;7.164;2022-08-27T04:02:49;23.40;99.90
21193;DHT22;10754;51.106;7.164;2022-08-27T04:05:15;23.40;99.90
21193;DHT22;10754;51.106;7.164;2022-08-27T04:07:41;23.40;99.90
21193;DHT22;10754;51.106;7.164;2022-08-27T04:10:08;23.40;99.90
21193;DHT22;10754;51.106;7.164;2022-08-27T04:12:34;23.40;99.90
21193;DHT22;10754;51.106;7.164;2022-08-27T04:15:00;23.40;99.90
21193;DHT22;10754;51.106;7.164;2022-08-27T04:17:26;23.40;99.90
21193;DHT22;10754;51.106;7.164;2022-08-27T04:19:51;23.50;99.90
21193;DHT22;10754;51.106;7.164;2022-08-27T04:22:17;23.40;99.90
21193;DHT22;10754;51.106;7.164;2022-08-27T04:24:43;23.40;99.90
21193;DHT22;10754;51.106;7.164;2022-08-27T04:27:09;23.40;99.90
21193;DHT22;10754;51.106;7.164;2022-08-27T04:29:36;23.50;99.90
21193;DHT22;10754;51.106;7.164;2022-08-27T04:32:02;23.40;99.90
21193;DHT22;10754;51.106;7.164;2022-08-27T04:34:28;23.40;99.90
21193;DHT22;10754;51.106;7.164;2022-08-27T04:36:55;23.40;99.90
21193;DHT22;10754;51.106;7.164;2022-08-27T04:39:21;23.40;99.90
21193;DHT22;10754;51.106;7.164;2022-08-27T04:41:49;23.40;99.90
21193;DHT22;10754;51.106;7.164;2022-08-27T04:44:15;23.40;99.90
21193;DHT22;10754;51.106;7.164;2022-08-27T04:46:40;23.30;99.90
21193;DHT22;10754;51.106;7.164;2022-08-27T04:49:09;23.30;99.90
21193;DHT22;10754;51.106;7.164;2022-08-27T04:51:36;23.30;99.90
21193;DHT22;10754;51.106;7.164;2022-08-27T04:54:02;23.30;99.90
21193;DHT22;10754;51.106;7.164;2022-08-27T04:56:29;23.30;99.90
21193;DHT22;10754;51.106;7.164;2022-08-27T04:58:55;23.30;99.90
21193;DHT22;10754;51.106;7.164;2022-08-27T05:01:24;23.30;99.90
21193;DHT22;10754;51.106;7.164;2022-08-27T05:03:50;23.30;99.90
21193;DHT22;10754;51.106;7.164;2022-08-27T05:06:16;23.30;99.90
21193;DHT22;10754;51.106;7.164;2022-08-27T05:08:43;23.30;99.90
21193;DHT22;10754;51.106;7.164;2022-08-27T05:11:11;23.20;99.90
21193;DHT22;10754;51.106;7.164;2022-08-27T05:13:38;23.30;99.90
21193;DHT22;10754;51.106;7.164;2022-08-27T05:16:13;23.20;99.90
21193;DHT22;10754;51.106;7.164;2022-08-27T05:18:39;23.20;99.90
21193;DHT22;10754;51.106;7.164;2022-08-27T05:21:05;23.20;99.90
21193;DHT22;10754;51.106;7.164;2022-08-27T05:23:32;23.20;99.90
21193;DHT22;10754;51.106;7.164;2022-08-27T05:25:58;23.30;99.90
21193;DHT22;10754;51.106;7.164;2022-08-27T05:28:26;23.20;99.90
21193;DHT22;10754;51.106;7.164;2022-08-27T05:30:54;23.20;99.90
21193;DHT22;10754;51.106;7.164;2022-08-27T05:33:23;23.20;99.90
21193;DHT22;10754;51.106;7.164;2022-08-27T05:35:56;23.20;99.90
21193;DHT22;10754;51.106;7.164;2022-08-27T05:38:23;23.20;99.90
21193;DHT22;10754;51.106;7.164;2022-08-27T05:40:49;23.20;99.90
21193;DHT22;10754;51.106;7.164;2022-08-27T05:43:17;23.20;99.90
21193;DHT22;10754;51.106;7.164;2022-08-27T05:45:44;23.20;99.90
21193;DHT22;10754;51.106;7.164;2022-08-27T05:48:10;23.10;99.90
21193;DHT22;10754;51.106;7.164;2022-08-27T05:50:40;23.20;99.90
21193;DHT22;10754;51.106;7.164;2022-08-27T05:53:07;23.10;99.90
21193;DHT22;10754;51.106;7.164;2022-08-27T05:55:43;23.10;99.90
21193;DHT22;10754;51.106;7.164;2022-08-27T05:58:10;23.10;99.90
21193;DHT22;10754;51.106;7.164;2022-08-27T06:00:55;23.00;99.90
21193;DHT22;10754;51.106;7.164;2022-08-27T06:03:34;23.00;99.90
21193;DHT22;10754;51.106;7.164;2022-08-27T06:06:04;23.00;99.90
21193;DHT22;10754;51.106;7.164;2022-08-27T06:08:30;23.00;99.90
21193;DHT22;10754;51.106;7.164;2022-08-27T06:10:56;22.90;99.90
21193;DHT22;10754;51.106;7.164;2022-08-27T06:13:25;22.90;99.90
21193;DHT22;10754;51.106;7.164;2022-08-27T06:15:50;22.90;99.90
21193;DHT22;10754;51.106;7.164;2022-08-27T06:18:24;22.90;99.90
21193;DHT22;10754;51.106;7.164;2022-08-27T06:20:50;22.90;99.90
21193;DHT22;10754;51.106;7.164;2022-08-27T06:23:15;23.00;99.90
21193;DHT22;10754;51.106;7.164;2022-08-27T06:25:41;23.00;99.90
21193;DHT22;10754;51.106;7.164;2022-08-27T06:28:07;22.90;99.90
21193;DHT22;10754;51.106;7.164;2022-08-27T06:30:33;23.00;99.90
21193;DHT22;10754;51.106;7.164;2022-08-27T06:32:58;22.80;99.90
21193;DHT22;10754;51.106;7.164;2022-08-27T06:35:24;22.90;99.90
21193;DHT22;10754;51.106;7.164;2022-08-27T06:37:50;22.90;99.90
21193;DHT22;10754;51.106;7.164;2022-08-27T06:40:15;22.80;1.00
21193;DHT22;10754;51.106;7.164;2022-08-27T06:42:41;22.80;1.00
21193;DHT22;10754;51.106;7.164;2022-08-27T06:45:07;22.80;1.00
21193;DHT22;10754;51.106;7.164;2022-08-27T06:47:33;22.90;1.40
21193;DHT22;10754;51.106;7.164;2022-08-27T06:49:58;22.90;99.90
21193;DHT22;10754;51.106;7.164;2022-08-27T06:52:24;22.90;99.90
21193;DHT22;10754;51.106;7.164;2022-08-27T06:54:50;22.90;99.90
21193;DHT22;10754;51.106;7.164;2022-08-27T06:57:16;22.90;99.90
21193;DHT22;10754;51.106;7.164;2022-08-27T06:59:42;22.90;99.90
21193;DHT22;10754;51.106;7.164;2022-08-27T07:02:09;22.90;1.40
21193;DHT22;10754;51.106;7.164;2022-08-27T07:04:35;22.90;1.00
21193;DHT22;10754;51.106;7.164;2022-08-27T07:07:01;22.90;1.00
21193;DHT22;10754;51.106;7.164;2022-08-27T07:09:27;22.90;1.00
21193;DHT22;10754;51.106;7.164;2022-08-27T07:11:56;23.00;1.00
21193;DHT22;10754;51.106;7.164;2022-08-27T07:14:21;23.00;99.90
21193;DHT22;10754;51.106;7.164;2022-08-27T07:16:47;23.10;99.90
21193;DHT22;10754;51.106;7.164;2022-08-27T07:19:13;23.00;99.90
21193;DHT22;10754;51.106;7.164;2022-08-27T07:21:39;23.00;1.00
21193;DHT22;10754;51.106;7.164;2022-08-27T07:24:04;23.00;1.00
21193;DHT22;10754;51.106;7.164;2022-08-27T07:26:34;23.00;1.00
21193;DHT22;10754;51.106;7.164;2022-08-27T07:29:01;23.10;1.00
21193;DHT22;10754;51.106;7.164;2022-08-27T07:31:27;23.10;1.00
21193;DHT22;10754;51.106;7.164;2022-08-27T07:33:53;23.10;1.00
21193;DHT22;10754;51.106;7.164;2022-08-27T07:36:22;23.10;1.00
21193;DHT22;10754;51.106;7.164;2022-08-27T07:38:49;23.20;1.00
21193;DHT22;10754;51.106;7.164;2022-08-27T07:41:17;23.20;1.00
21193;DHT22;10754;51.106;7.164;2022-08-27T07:43:42;23.20;1.00
21193;DHT22;10754;51.106;7.164;2022-08-27T07:46:27;23.20;1.00
21193;DHT22;10754;51.106;7.164;2022-08-27T07:48:52;23.20;1.00
21193;DHT22;10754;51.106;7.164;2022-08-27T07:51:21;23.20;1.00
21193;DHT22;10754;51.106;7.164;2022-08-27T07:53:47;23.30;1.00
21193;DHT22;10754;51.106;7.164;2022-08-27T07:56:13;23.40;1.00
21193;DHT22;10754;51.106;7.164;2022-08-27T07:58:40;23.40;1.40
21193;DHT22;10754;51.106;7.164;2022-08-27T08:01:05;23.50;99.90
21193;DHT22;10754;51.106;7.164;2022-08-27T08:03:31;23.50;1.00
21193;DHT22;10754;51.106;7.164;2022-08-27T08:06:05;23.50;1.00
21193;DHT22;10754;51.106;7.164;2022-08-27T08:08:33;23.50;1.00
21193;DHT22;10754;51.106;7.164;2022-08-27T08:10:58;23.50;1.00
21193;DHT22;10754;51.106;7.164;2022-08-27T08:13:24;23.50;1.00
21193;DHT22;10754;51.106;7.164;2022-08-27T08:15:51;23.50;1.00
21193;DHT22;10754;51.106;7.164;2022-08-27T08:18:16;23.50;1.00
21193;DHT22;10754;51.106;7.164;2022-08-27T08:20:42;23.60;1.00
21193;DHT22;10754;51.106;7.164;2022-08-27T08:23:08;23.50;1.00
21193;DHT22;10754;51.106;7.164;2022-08-27T08:25:33;23.50;1.40
21193;DHT22;10754;51.106;7.164;2022-08-27T08:27:59;23.50;1.40
21193;DHT22;10754;51.106;7.164;2022-08-27T08:30:26;23.60;1.40
21193;DHT22;10754;51.106;7.164;2022-08-27T08:32:52;23.60;99.90
21193;DHT22;10754;51.106;7.164;2022-08-27T08:35:18;23.70;1.00
21193;DHT22;10754;51.106;7.164;2022-08-27T08:37:44;23.70;99.90
21193;DHT22;10754;51.106;7.164;2022-08-27T08:40:19;23.70;99.90
21193;DHT22;10754;51.106;7.164;2022-08-27T08:42:50;23.80;99.90
21193;DHT22;10754;51.106;7.164;2022-08-27T08:45:22;23.80;99.90
21193;DHT22;10754;51.106;7.164;2022-08-27T08:48:11;23.90;99.90
21193;DHT22;10754;51.106;7.164;2022-08-27T08:50:58;23.90;99.90
21193;DHT22;10754;51.106;7.164;2022-08-27T08:56:23;24.00;99.90
21193;DHT22;10754;51.106;7.164;2022-08-27T08:59:00;24.00;99.90
21193;DHT22;10754;51.106;7.164;2022-08-27T09:01:27;24.00;99.90
21193;DHT22;10754;51.106;7.164;2022-08-27T09:04:02;24.00;99.90
21193;DHT22;10754;51.106;7.164;2022-08-27T09:06:44;24.10;99.90
21193;DHT22;10754;51.106;7.164;2022-08-27T09:09:25;24.10;99.90
21193;DHT22;10754;51.106;7.164;2022-08-27T09:12:20;24.10;99.90
21193;DHT22;10754;51.106;7.164;2022-08-27T09:17:18;24.10;99.90
21193;DHT22;10754;51.106;7.164;2022-08-27T09:19:44;24.10;99.90
21193;DHT22;10754;51.106;7.164;2022-08-27T09:25:10;24.10;99.90
21193;DHT22;10754;51.106;7.164;2022-08-27T09:27:40;24.10;99.90
21193;DHT22;10754;51.106;7.164;2022-08-27T09:30:10;24.10;99.90
21193;DHT22;10754;51.106;7.164;2022-08-27T09:32:37;24.10;99.90
21193;DHT22;10754;51.106;7.164;2022-08-27T09:35:06;24.10;99.90
21193;DHT22;10754;51.106;7.164;2022-08-27T09:37:43;24.20;99.90
21193;DHT22;10754;51.106;7.164;2022-08-27T09:42:49;24.30;99.90
21193;DHT22;10754;51.106;7.164;2022-08-27T09:45:23;24.30;99.90
21193;DHT22;10754;51.106;7.164;2022-08-27T09:48:06;24.30;99.90
21193;DHT22;10754;51.106;7.164;2022-08-27T09:50:41;24.40;99.90
21193;DHT22;10754;51.106;7.164;2022-08-27T09:56:04;24.40;99.90
21193;DHT22;10754;51.106;7.164;2022-08-27T10:04:24;24.40;99.90
21193;DHT22;10754;51.106;7.164;2022-08-27T10:06:51;24.30;99.90
21193;DHT22;10754;51.106;7.164;2022-08-27T10:09:33;24.30;99.90
21193;DHT22;10754;51.106;7.164;2022-08-27T10:12:11;24.30;99.90
21193;DHT22;10754;51.106;7.164;2022-08-27T10:14:44;24.30;99.90
21193;DHT22;10754;51.106;7.164;2022-08-27T10:17:22;24.20;99.90
21193;DHT22;10754;51.106;7.164;2022-08-27T10:22:35;24.30;99.90
21193;DHT22;10754;51.106;7.164;2022-08-27T10:39:29;24.10;99.90
21193;DHT22;10754;51.106;7.164;2022-08-27T10:42:10;24.10;99.90
21193;DHT22;10754;51.106;7.164;2022-08-27T10:47:26;24.10;99.90
21193;DHT22;10754;51.106;7.164;2022-08-27T10:50:06;24.20;99.90
21193;DHT22;10754;51.106;7.164;2022-08-27T10:53:08;24.20;99.90
21193;DHT22;10754;51.106;7.164;2022-08-27T10:55:40;24.30;99.90
21193;DHT22;10754;51.106;7.164;2022-08-27T10:58:10;24.20;99.90
21193;DHT22;10754;51.106;7.164;2022-08-27T11:03:55;24.30;99.90
21193;DHT22;10754;51.106;7.164;2022-08-27T11:06:31;24.40;99.90
21193;DHT22;10754;51.106;7.164;2022-08-27T11:09:24;24.30;99.90
21193;DHT22;10754;51.106;7.164;2022-08-27T11:11:55;24.40;99.90
21193;DHT22;10754;51.106;7.164;2022-08-27T11:14:37;24.40;99.90
21193;DHT22;10754;51.106;7.164;2022-08-27T11:17:08;24.40;99.90
21193;DHT22;10754;51.106;7.164;2022-08-27T11:20:05;24.40;99.90
21193;DHT22;10754;51.106;7.164;2022-08-27T11:22:38;24.40;99.90
21193;DHT22;10754;51.106;7.164;2022-08-27T11:27:50;24.50;99.90
21193;DHT22;10754;51.106;7.164;2022-08-27T11:30:28;24.50;99.90
21193;DHT22;10754;51.106;7.164;2022-08-27T11:43:44;24.60;99.90
21193;DHT22;10754;51.106;7.164;2022-08-27T11:46:21;24.70;99.90
21193;DHT22;10754;51.106;7.164;2022-08-27T11:48:59;24.90;99.90
21193;DHT22;10754;51.106;7.164;2022-08-27T11:51:34;25.00;99.90
21193;DHT22;10754;51.106;7.164;2022-08-27T11:54:07;25.00;99.90
21193;DHT22;10754;51.106;7.164;2022-08-27T11:56:41;25.00;99.90
21193;DHT22;10754;51.106;7.164;2022-08-27T11:59:29;25.00;99.90
21193;DHT22;10754;51.106;7.164;2022-08-27T12:01:57;24.90;99.90
21193;DHT22;10754;51.106;7.164;2022-08-27T12:04:37;24.90;99.90
21193;DHT22;10754;51.106;7.164;2022-08-27T12:12:35;24.90;99.90
21193;DHT22;10754;51.106;7.164;2022-08-27T12:15:13;24.90;99.90
21193;DHT22;10754;51.106;7.164;2022-08-27T12:20:33;24.90;99.90
21193;DHT22;10754;51.106;7.164;2022-08-27T12:23:26;24.80;99.90
21193;DHT22;10754;51.106;7.164;2022-08-27T12:29:18;24.90;99.90
21193;DHT22;10754;51.106;7.164;2022-08-27T12:31:47;24.80;99.90
21193;DHT22;10754;51.106;7.164;2022-08-27T12:34:18;24.80;99.90
21193;DHT22;10754;51.106;7.164;2022-08-27T12:36:47;24.90;99.90
21193;DHT22;10754;51.106;7.164;2022-08-27T12:39:17;24.90;99.90
21193;DHT22;10754;51.106;7.164;2022-08-27T12:41:46;24.80;99.90
21193;DHT22;10754;51.106;7.164;2022-08-27T12:44:26;24.80;99.90
21193;DHT22;10754;51.106;7.164;2022-08-27T12:47:02;24.80;99.90
21193;DHT22;10754;51.106;7.164;2022-08-27T12:57:55;25.20;99.90
21193;DHT22;10754;51.106;7.164;2022-08-27T13:00:28;25.10;99.90
21193;DHT22;10754;51.106;7.164;2022-08-27T13:03:20;25.10;99.90
21193;DHT22;10754;51.106;7.164;2022-08-27T13:05:49;25.30;99.90
21193;DHT22;10754;51.106;7.164;2022-08-27T13:08:20;25.20;99.90
21193;DHT22;10754;51.106;7.164;2022-08-27T13:10:46;25.30;99.90
21193;DHT22;10754;51.106;7.164;2022-08-27T13:13:15;25.30;99.90
21193;DHT22;10754;51.106;7.164;2022-08-27T13:15:49;25.30;99.90
21193;DHT22;10754;51.106;7.164;2022-08-27T13:18:17;25.40;99.90
21193;DHT22;10754;51.106;7.164;2022-08-27T13:20:43;25.40;99.90
21193;DHT22;10754;51.106;7.164;2022-08-27T13:23:15;25.50;99.90
21193;DHT22;10754;51.106;7.164;2022-08-27T13:26:05;25.50;99.90
21193;DHT22;10754;51.106;7.164;2022-08-27T13:28:32;25.50;99.90
21193;DHT22;10754;51.106;7.164;2022-08-27T13:31:00;25.50;99.90
21193;DHT22;10754;51.106;7.164;2022-08-27T13:33:29;25.50;99.90
21193;DHT22;10754;51.106;7.164;2022-08-27T13:35:55;25.50;99.90
21193;DHT22;10754;51.106;7.164;2022-08-27T13:38:22;25.50;99.90
21193;DHT22;10754;51.106;7.164;2022-08-27T13:41:08;25.50;99.90
21193;DHT22;10754;51.106;7.164;2022-08-27T13:43:45;25.50;99.90
21193;DHT22;10754;51.106;7.164;2022-08-27T13:46:15;25.50;99.90
21193;DHT22;10754;51.106;7.164;2022-08-27T13:48:43;25.40;99.90
21193;DHT22;10754;51.106;7.164;2022-08-27T13:51:11;25.50;99.90
21193;DHT22;10754;51.106;7.164;2022-08-27T13:53:45;25.50;99.90
21193;DHT22;10754;51.106;7.164;2022-08-27T13:56:33;25.40;99.90
21193;DHT22;10754;51.106;7.164;2022-08-27T14:04:49;25.40;99.90
21193;DHT22;10754;51.106;7.164;2022-08-27T14:07:22;25.40;99.90
21193;DHT22;10754;51.106;7.164;2022-08-27T14:09:52;25.40;99.90
21193;DHT22;10754;51.106;7.164;2022-08-27T14:12:30;25.40;99.90
21193;DHT22;10754;51.106;7.164;2022-08-27T14:15:21;25.40;99.90
21193;DHT22;10754;51.106;7.164;2022-08-27T14:17:44;25.30;99.90
21193;DHT22;10754;51.106;7.164;2022-08-27T14:20:12;25.30;99.90
21193;DHT22;10754;51.106;7.164;2022-08-27T14:22:40;25.30;99.90
21193;DHT22;10754;51.106;7.164;2022-08-27T14:25:06;25.30;99.90
21193;DHT22;10754;51.106;7.164;2022-08-27T14:27:34;25.40;99.90
21193;DHT22;10754;51.106;7.164;2022-08-27T14:30:00;25.30;99.90
21193;DHT22;10754;51.106;7.164;2022-08-27T14:32:26;25.30;99.90
21193;DHT22;10754;51.106;7.164;2022-08-27T14:34:51;25.30;99.90
21193;DHT22;10754;51.106;7.164;2022-08-27T14:37:17;25.20;99.90
21193;DHT22;10754;51.106;7.164;2022-08-27T14:39:43;25.20;99.90
21193;DHT22;10754;51.106;7.164;2022-08-27T14:42:10;25.20;99.90
21193;DHT22;10754;51.106;7.164;2022-08-27T14:44:36;25.20;99.90
21193;DHT22;10754;51.106;7.164;2022-08-27T14:47:03;25.30;99.90
21193;DHT22;10754;51.106;7.164;2022-08-27T14:49:33;25.20;99.90
21193;DHT22;10754;51.106;7.164;2022-08-27T14:52:02;25.20;99.90
21193;DHT22;10754;51.106;7.164;2022-08-27T14:54:28;25.20;99.90
21193;DHT22;10754;51.106;7.164;2022-08-27T14:56:54;25.20;99.90
21193;DHT22;10754;51.106;7.164;2022-08-27T14:59:20;25.20;99.90
21193;DHT22;10754;51.106;7.164;2022-08-27T15:01:46;25.20;99.90
21193;DHT22;10754;51.106;7.164;2022-08-27T15:04:12;25.10;99.90
21193;DHT22;10754;51.106;7.164;2022-08-27T15:06:38;25.20;99.90
21193;DHT22;10754;51.106;7.164;2022-08-27T15:09:04;25.10;99.90
21193;DHT22;10754;51.106;7.164;2022-08-27T15:11:32;25.10;99.90
21193;DHT22;10754;51.106;7.164;2022-08-27T15:14:00;25.00;99.90
21193;DHT22;10754;51.106;7.164;2022-08-27T15:16:32;25.00;99.90
21193;DHT22;10754;51.106;7.164;2022-08-27T15:18:59;25.00;99.90
21193;DHT22;10754;51.106;7.164;2022-08-27T15:21:25;25.00;99.90
21193;DHT22;10754;51.106;7.164;2022-08-27T15:23:55;25.00;99.90
21193;DHT22;10754;51.106;7.164;2022-08-27T15:26:21;25.00;99.90
21193;DHT22;10754;51.106;7.164;2022-08-27T15:28:47;25.00;99.90
21193;DHT22;10754;51.106;7.164;2022-08-27T15:31:12;25.00;99.90
21193;DHT22;10754;51.106;7.164;2022-08-27T15:33:38;25.00;99.90
21193;DHT22;10754;51.106;7.164;2022-08-27T15:36:03;25.00;99.90
21193;DHT22;10754;51.106;7.164;2022-08-27T15:38:29;25.00;99.90
21193;DHT22;10754;51.106;7.164;2022-08-27T15:40:54;25.00;99.90
21193;DHT22;10754;51.106;7.164;2022-08-27T15:43:20;25.00;99.90
21193;DHT22;10754;51.106;7.164;2022-08-27T15:45:46;25.00;99.90
21193;DHT22;10754;51.106;7.164;2022-08-27T15:48:11;25.00;99.90
21193;DHT22;10754;51.106;7.164;2022-08-27T15:50:37;25.00;99.90
21193;DHT22;10754;51.106;7.164;2022-08-27T15:53:06;25.00;99.90
21193;DHT22;10754;51.106;7.164;2022-08-27T15:55:35;25.00;99.90
21193;DHT22;10754;51.106;7.164;2022-08-27T15:58:01;25.00;99.90
21193;DHT22;10754;51.106;7.164;2022-08-27T16:00:28;24.90;99.90
21193;DHT22;10754;51.106;7.164;2022-08-27T16:02:54;24.90;99.90
21193;DHT22;10754;51.106;7.164;2022-08-27T16:05:21;24.90;99.90
21193;DHT22;10754;51.106;7.164;2022-08-27T16:07:47;24.80;99.90
21193;DHT22;10754;51.106;7.164;2022-08-27T16:10:14;24.80;99.90
21193;DHT22;10754;51.106;7.164;2022-08-27T16:12:39;24.80;99.90
21193;DHT22;10754;51.106;7.164;2022-08-27T16:15:05;24.80;99.90
21193;DHT22;10754;51.106;7.164;2022-08-27T16:17:32;24.90;99.90
21193;DHT22;10754;51.106;7.164;2022-08-27T16:19:58;24.80;99.90
21193;DHT22;10754;51.106;7.164;2022-08-27T16:22:24;24.80;99.90
21193;DHT22;10754;51.106;7.164;2022-08-27T16:24:49;24.80;99.90
21193;DHT22;10754;51.106;7.164;2022-08-27T16:27:15;24.80;99.90
21193;DHT22;10754;51.106;7.164;2022-08-27T16:29:40;24.80;99.90
21193;DHT22;10754;51.106;7.164;2022-08-27T16:32:10;24.80;99.90
21193;DHT22;10754;51.106;7.164;2022-08-27T16:34:38;24.80;99.90
21193;DHT22;10754;51.106;7.164;2022-08-27T16:37:04;24.70;99.90
21193;DHT22;10754;51.106;7.164;2022-08-27T16:39:29;24.80;99.90
21193;DHT22;10754;51.106;7.164;2022-08-27T16:41:55;24.80;99.90
21193;DHT22;10754;51.106;7.164;2022-08-27T16:44:20;24.80;99.90
21193;DHT22;10754;51.106;7.164;2022-08-27T16:46:51;24.70;99.90
21193;DHT22;10754;51.106;7.164;2022-08-27T16:49:17;24.70;99.90
21193;DHT22;10754;51.106;7.164;2022-08-27T16:52:02;24.70;99.90
21193;DHT22;10754;51.106;7.164;2022-08-27T16:54:27;24.70;99.90
21193;DHT22;10754;51.106;7.164;2022-08-27T16:56:53;24.70;99.90
21193;DHT22;10754;51.106;7.164;2022-08-27T16:59:18;24.70;99.90
21193;DHT22;10754;51.106;7.164;2022-08-27T17:01:46;24.60;99.90
21193;DHT22;10754;51.106;7.164;2022-08-27T17:04:14;24.60;99.90
21193;DHT22;10754;51.106;7.164;2022-08-27T17:06:41;24.60;99.90